createdAt,value
2023-02-19T00:00:53.502Z,9.08
2023-02-19T00:03:43.224Z,9.08
2023-02-19T00:06:51.834Z,9.08
2023-02-19T00:09:42.432Z,9.07
2023-02-19T00:12:51.107Z,9.07
2023-02-19T00:15:51.099Z,9.06
2023-02-19T00:18:39.590Z,9.06
2023-02-19T00:21:31.479Z,9.07
2023-02-19T00:24:23.317Z,9.07
2023-02-19T00:27:11.989Z,9.07
2023-02-19T00:30:14.250Z,9.05
2023-02-19T00:33:23.256Z,9.01
2023-02-19T00:36:34.720Z,8.97
2023-02-19T00:39:36.331Z,8.93
2023-02-19T00:42:25.287Z,8.90
2023-02-19T00:45:35.246Z,8.87
2023-02-19T00:48:44.239Z,8.85
2023-02-19T00:51:53.092Z,8.83
2023-02-19T00:55:02.001Z,8.81
2023-02-19T00:57:53.019Z,8.79
2023-02-19T01:00:52.180Z,8.76
2023-02-19T01:04:23.335Z,8.75
2023-02-19T01:07:29.492Z,8.74
2023-02-19T01:10:38.602Z,8.73
2023-02-19T01:13:28.779Z,8.72
2023-02-19T01:16:37.912Z,8.71
2023-02-19T01:19:30.070Z,8.69
2023-02-19T01:22:31.853Z,8.68
2023-02-19T01:25:29.947Z,8.66
2023-02-19T01:28:19.035Z,8.65
2023-02-19T01:31:22.234Z,8.64
2023-02-19T01:34:32.895Z,8.63
2023-02-19T01:37:29.187Z,8.62
2023-02-19T01:40:27.135Z,8.61
2023-02-19T01:43:55.020Z,8.58
2023-02-19T01:46:53.738Z,8.56
2023-02-19T01:49:56.466Z,8.54
2023-02-19T01:53:07.129Z,8.54
2023-02-19T01:56:17.674Z,8.55
2023-02-19T01:59:19.883Z,8.54
2023-02-19T02:02:29.394Z,8.54
2023-02-19T02:05:45.162Z,8.52
2023-02-19T02:08:52.821Z,8.49
2023-02-19T02:12:01.912Z,8.46
2023-02-19T02:14:50.617Z,8.45
2023-02-19T02:17:51.622Z,8.43
2023-02-19T02:21:04.190Z,8.42
2023-02-19T02:24:19.641Z,8.41
2023-02-19T02:27:42.134Z,8.38
2023-02-19T02:30:45.148Z,8.33
2023-02-19T02:33:57.523Z,8.29
2023-02-19T02:37:08.389Z,8.28
2023-02-19T02:40:11.368Z,8.28
2023-02-19T02:43:20.509Z,8.28
2023-02-19T02:46:35.242Z,8.25
2023-02-19T02:50:04.733Z,8.21
2023-02-19T02:53:36.700Z,8.17
2023-02-19T02:56:46.771Z,8.14
2023-02-19T02:59:55.787Z,8.11
2023-02-19T03:02:57.547Z,8.07
2023-02-19T03:06:09.297Z,8.04
2023-02-19T03:09:20.886Z,8.03
2023-02-19T03:12:33.809Z,8.03
2023-02-19T03:16:03.356Z,8.03
2023-02-19T03:19:20.226Z,8.01
2023-02-19T03:22:31.281Z,7.98
2023-02-19T03:25:59.230Z,7.96
2023-02-19T03:29:26.017Z,7.93
2023-02-19T03:32:38.693Z,7.88
2023-02-19T03:35:54.506Z,7.85
2023-02-19T03:39:26.949Z,7.81
2023-02-19T03:42:42.393Z,7.81
2023-02-19T03:45:56.154Z,7.84
2023-02-19T03:48:59.148Z,7.86
2023-02-19T03:52:11.825Z,7.86
2023-02-19T03:55:16.259Z,7.86
2023-02-19T03:58:22.721Z,7.85
2023-02-19T04:01:27.971Z,7.86
2023-02-19T04:04:31.884Z,7.86
2023-02-19T04:07:36.429Z,7.88
2023-02-19T04:10:47.445Z,7.92
2023-02-19T04:13:59.785Z,7.96
2023-02-19T04:17:12.006Z,8.01
2023-02-19T04:20:07.542Z,8.02
2023-02-19T04:36:43.246Z,8.03
2023-02-19T04:40:33.949Z,8.07
2023-02-19T04:44:38.951Z,8.10
2023-02-19T04:51:56.082Z,8.13
2023-02-19T04:55:27.126Z,8.17
2023-02-19T04:59:17.523Z,8.18
2023-02-19T05:03:46.200Z,8.21
2023-02-19T05:07:49.013Z,8.21
2023-02-19T05:11:44.051Z,8.20
2023-02-19T05:23:38.178Z,8.14
2023-02-19T05:35:08.175Z,8.17
2023-02-19T05:42:19.580Z,8.18
2023-02-19T05:54:31.734Z,8.13
2023-02-19T05:58:01.227Z,8.14
2023-02-19T06:01:36.523Z,8.15
2023-02-19T06:05:20.015Z,8.14
2023-02-19T06:24:47.661Z,8.00
2023-02-19T06:28:08.122Z,8.00
2023-02-19T06:31:20.345Z,7.97
2023-02-19T06:38:18.924Z,7.88
2023-02-19T06:41:52.148Z,7.84
2023-02-19T06:57:55.199Z,7.73
2023-02-19T07:01:27.752Z,7.72
2023-02-19T07:04:38.161Z,7.73
2023-02-19T07:07:52.229Z,7.75
2023-02-19T07:19:14.508Z,7.78
2023-02-19T07:22:53.216Z,7.77
2023-02-19T07:26:06.189Z,7.77
2023-02-19T07:29:17.774Z,7.79
2023-02-19T07:32:33.058Z,7.81
2023-02-19T07:43:26.298Z,7.82
2023-02-19T07:46:57.740Z,7.81
2023-02-19T07:54:53.089Z,7.82
2023-02-19T08:02:52.612Z,7.84
2023-02-19T08:11:41.916Z,7.86
2023-02-19T08:27:35.613Z,8.02
2023-02-19T08:51:34.424Z,8.28
2023-02-19T09:07:50.545Z,8.34
2023-02-19T09:11:49.179Z,8.36
2023-02-19T09:15:23.981Z,8.38
2023-02-19T09:19:32.088Z,8.42
2023-02-19T09:23:38.718Z,8.47
2023-02-19T09:27:10.975Z,8.54
2023-02-19T09:31:18.428Z,8.65
2023-02-19T09:35:29.637Z,8.83
2023-02-19T09:43:42.532Z,9.30
2023-02-19T09:47:59.056Z,9.44
2023-02-19T10:28:53.179Z,9.68
2023-02-19T10:32:23.542Z,9.89
2023-02-19T10:35:14.044Z,10.01
2023-02-19T10:38:07.829Z,10.03
2023-02-19T10:41:05.153Z,10.03
2023-02-19T10:43:59.807Z,10.04
2023-02-19T10:46:55.087Z,10.05
2023-02-19T10:49:48.669Z,10.04
2023-02-19T10:52:37.551Z,10.06
2023-02-19T10:55:31.388Z,10.10
2023-02-19T10:58:28.046Z,10.14
2023-02-19T11:01:19.584Z,10.20
2023-02-19T11:04:17.268Z,10.24
2023-02-19T11:07:15.810Z,10.28
2023-02-19T11:10:08.274Z,10.34
2023-02-19T11:13:02.163Z,10.41
2023-02-19T11:15:54.477Z,10.59
2023-02-19T11:18:44.726Z,10.84
2023-02-19T11:21:35.445Z,11.02
2023-02-19T11:24:47.931Z,11.20
2023-02-19T11:27:53.608Z,11.39
2023-02-19T11:30:45.852Z,11.45
2023-02-19T11:33:37.239Z,11.51
2023-02-19T11:36:35.459Z,11.77
2023-02-19T11:39:28.998Z,12.32
2023-02-19T11:42:41.972Z,12.67
2023-02-19T11:45:36.078Z,12.84
2023-02-19T11:48:55.033Z,12.96
2023-02-19T11:52:02.884Z,14.39
2023-02-19T11:55:06.383Z,18.22
2023-02-19T11:58:09.011Z,18.35
2023-02-19T12:01:04.854Z,17.64
2023-02-19T12:04:37.880Z,16.70
2023-02-19T12:07:39.995Z,16.15
2023-02-19T12:10:34.830Z,16.28
2023-02-19T12:13:32.682Z,16.36
2023-02-19T12:16:26.167Z,17.53
2023-02-19T12:19:56.969Z,18.12
2023-02-19T12:22:51.948Z,18.46
2023-02-19T12:25:48.093Z,17.90
2023-02-19T12:28:51.088Z,17.80
2023-02-19T12:31:57.935Z,16.96
2023-02-19T12:35:15.506Z,16.25
2023-02-19T12:38:13.711Z,16.20
2023-02-19T12:41:23.399Z,16.28
2023-02-19T12:44:16.069Z,16.19
2023-02-19T12:47:07.005Z,17.04
2023-02-19T12:50:02.005Z,19.78
2023-02-19T12:52:55.973Z,22.02
2023-02-19T12:55:55.958Z,24.11
2023-02-19T12:58:50.481Z,25.45
2023-02-19T13:01:45.747Z,25.14
2023-02-19T13:07:54.422Z,25.01
2023-02-19T13:10:44.579Z,24.84
2023-02-19T13:13:37.969Z,24.87
2023-02-19T13:16:40.441Z,24.99
2023-02-19T13:19:33.126Z,24.80
2023-02-19T13:22:44.411Z,25.64
2023-02-19T13:25:43.697Z,26.06
2023-02-19T13:33:23.284Z,22.08
2023-02-19T13:36:35.713Z,20.83
2023-02-19T13:40:10.079Z,20.08
2023-02-19T13:44:02.384Z,19.33
2023-02-19T13:47:29.149Z,19.39
2023-02-19T13:51:18.713Z,19.31
2023-02-19T13:54:22.910Z,20.56
2023-02-19T13:57:37.997Z,21.65
2023-02-19T14:00:51.876Z,22.81
2023-02-19T14:04:10.558Z,23.37
2023-02-19T14:07:36.377Z,23.49
2023-02-19T14:10:53.873Z,23.33
2023-02-19T14:14:25.197Z,23.64
2023-02-19T14:17:45.275Z,23.67
2023-02-19T14:21:34.185Z,23.67
2023-02-19T14:24:44.956Z,22.72
2023-02-19T14:27:54.960Z,20.99
2023-02-19T14:31:29.657Z,20.07
2023-02-19T14:34:59.410Z,20.83
2023-02-19T14:38:18.295Z,21.71
2023-02-19T14:43:22.108Z,22.02
2023-02-19T14:46:16.555Z,21.55
2023-02-19T14:49:07.336Z,20.05
2023-02-19T14:52:00.658Z,19.68
2023-02-19T14:54:52.644Z,20.12
2023-02-19T14:57:45.452Z,20.30
2023-02-19T15:00:36.455Z,20.22
2023-02-19T15:03:27.177Z,19.95
2023-02-19T15:06:18.090Z,19.66
2023-02-19T15:09:07.220Z,19.52
2023-02-19T15:11:59.005Z,19.40
2023-02-19T15:14:48.550Z,19.11
2023-02-19T15:17:39.229Z,18.90
2023-02-19T15:20:28.832Z,18.77
2023-02-19T15:23:22.320Z,18.52
2023-02-19T15:26:18.948Z,18.24
2023-02-19T15:29:11.094Z,17.93
2023-02-19T15:32:01.781Z,17.58
2023-02-19T15:34:57.266Z,17.22
2023-02-19T15:37:46.050Z,17.02
2023-02-19T15:40:35.258Z,16.83
2023-02-19T15:43:26.107Z,16.61
2023-02-19T15:46:17.964Z,16.40
2023-02-19T15:49:09.224Z,16.27
2023-02-19T15:52:00.223Z,16.15
2023-02-19T15:54:55.654Z,15.97
2023-02-19T15:57:50.942Z,15.76
2023-02-19T16:00:41.525Z,15.65
2023-02-19T16:03:30.954Z,15.58
2023-02-19T16:06:19.792Z,15.46
2023-02-19T16:09:19.902Z,15.27
2023-02-19T16:12:20.875Z,14.99
2023-02-19T16:15:15.245Z,14.77
2023-02-19T16:18:14.693Z,14.46
2023-02-19T16:21:08.071Z,14.13
2023-02-19T16:23:59.317Z,13.90
2023-02-19T16:26:47.766Z,13.77
2023-02-19T16:29:36.888Z,13.76
2023-02-19T16:32:31.322Z,13.77
2023-02-19T16:35:35.948Z,13.74
2023-02-19T16:38:27.331Z,13.69
2023-02-19T16:41:18.887Z,13.57
2023-02-19T16:44:31.149Z,13.36
2023-02-19T16:47:44.469Z,13.16
2023-02-19T16:50:53.279Z,12.97
2023-02-19T16:53:54.347Z,12.80
2023-02-19T16:56:54.726Z,12.67
2023-02-19T16:59:43.428Z,12.55
2023-02-19T17:02:34.756Z,12.46
2023-02-19T17:05:44.348Z,12.36
2023-02-19T17:08:34.695Z,12.27
2023-02-19T17:11:36.477Z,12.20
2023-02-19T17:14:25.283Z,12.15
2023-02-19T17:17:34.240Z,12.11
2023-02-19T17:20:45.602Z,12.05
2023-02-19T17:23:47.432Z,12.00
2023-02-19T17:26:54.886Z,11.96
2023-02-19T17:30:04.051Z,11.92
2023-02-19T17:32:57.657Z,11.90
2023-02-19T17:36:07.264Z,11.88
2023-02-19T17:38:56.035Z,11.85
2023-02-19T17:42:02.970Z,11.83
2023-02-19T17:45:02.889Z,11.82
2023-02-19T17:48:12.822Z,11.84
2023-02-19T17:51:21.530Z,11.88
2023-02-19T17:54:30.282Z,11.92
2023-02-19T17:57:18.950Z,11.95
2023-02-19T18:00:23.141Z,11.97
2023-02-19T18:03:22.521Z,11.99
2023-02-19T18:06:19.106Z,12.01
2023-02-19T18:09:27.839Z,12.03
2023-02-19T18:12:18.800Z,12.05
2023-02-19T18:15:28.388Z,12.08
2023-02-19T18:18:23.292Z,12.09
2023-02-19T18:21:13.378Z,12.10
2023-02-19T18:24:09.522Z,12.10
2023-02-19T18:27:11.841Z,12.10
2023-02-19T18:30:00.639Z,12.11
2023-02-19T18:33:10.542Z,12.13
2023-02-19T18:36:11.954Z,12.13
2023-02-19T18:39:21.633Z,12.13
2023-02-19T18:42:10.194Z,12.13
2023-02-19T18:45:19.130Z,12.13
2023-02-19T18:48:27.880Z,12.13
2023-02-19T18:51:36.575Z,12.14
2023-02-19T18:54:36.326Z,12.16
2023-02-19T18:57:45.264Z,12.15
2023-02-19T19:00:39.190Z,12.15
2023-02-19T19:03:48.055Z,12.14
2023-02-19T19:06:58.275Z,12.15
2023-02-19T19:10:06.985Z,12.16
2023-02-19T19:12:55.611Z,12.18
2023-02-19T19:15:49.243Z,12.18
2023-02-19T19:19:00.700Z,12.19
2023-02-19T19:21:53.284Z,12.19
2023-02-19T19:24:42.683Z,12.21
2023-02-19T19:27:54.945Z,12.21
2023-02-19T19:31:04.225Z,12.21
2023-02-19T19:34:16.045Z,12.21
2023-02-19T19:37:17.963Z,12.21
2023-02-19T19:40:27.432Z,12.19
2023-02-19T19:43:37.298Z,12.18
2023-02-19T19:47:03.969Z,12.17
2023-02-19T19:50:13.997Z,12.16
2023-02-19T19:53:23.190Z,12.14
2023-02-19T19:56:31.471Z,12.11
2023-02-19T19:59:41.079Z,12.07
2023-02-19T20:02:43.260Z,12.02
2023-02-19T20:05:50.723Z,11.96
2023-02-19T20:09:02.613Z,11.91
2023-02-19T20:11:58.191Z,11.87
2023-02-19T20:14:49.697Z,11.84
2023-02-19T20:17:58.515Z,11.82
2023-02-19T20:21:08.409Z,11.79
2023-02-19T20:24:12.987Z,11.76
2023-02-19T20:27:03.590Z,11.72
2023-02-19T20:29:52.318Z,11.69
2023-02-19T20:33:01.037Z,11.66
2023-02-19T20:36:10.306Z,11.62
2023-02-19T20:39:11.622Z,11.60
2023-02-19T20:42:20.389Z,11.57
2023-02-19T20:45:30.284Z,11.54
2023-02-19T20:48:39.403Z,11.52
2023-02-19T20:51:51.295Z,11.51
2023-02-19T20:54:54.633Z,11.48
2023-02-19T20:57:53.512Z,11.46
2023-02-19T21:01:02.052Z,11.43
2023-02-19T21:04:10.800Z,11.41
2023-02-19T21:07:19.854Z,11.37
2023-02-19T21:10:12.434Z,11.34
2023-02-19T21:13:13.994Z,11.30
2023-02-19T21:16:13.522Z,11.28
2023-02-19T21:19:06.935Z,11.26
2023-02-19T21:22:09.454Z,11.25
2023-02-19T21:25:00.995Z,11.24
2023-02-19T21:28:08.493Z,11.21
2023-02-19T21:31:17.571Z,11.17
2023-02-19T21:34:27.935Z,11.13
2023-02-19T21:37:37.236Z,11.07
2023-02-19T21:40:44.807Z,11.02
2023-02-19T21:43:35.993Z,10.97
2023-02-19T21:46:32.660Z,10.92
2023-02-19T21:49:42.012Z,10.88
2023-02-19T21:52:33.934Z,10.85
2023-02-19T21:55:57.451Z,10.82
2023-02-19T21:59:06.366Z,10.79
2023-02-19T22:02:17.520Z,10.77
2023-02-19T22:05:14.780Z,10.74
2023-02-19T22:08:23.768Z,10.72
2023-02-19T22:11:32.781Z,10.72
2023-02-19T22:14:41.654Z,10.71
2023-02-19T22:17:50.531Z,10.70
2023-02-19T22:20:59.493Z,10.68
2023-02-19T22:24:13.823Z,10.66
2023-02-19T22:27:24.204Z,10.64
2023-02-19T22:30:32.988Z,10.63
2023-02-19T22:33:42.579Z,10.61
2023-02-19T22:36:51.812Z,10.61
2023-02-19T22:40:01.561Z,10.61
2023-02-19T22:43:11.085Z,10.61
2023-02-19T22:46:21.267Z,10.62
2023-02-19T22:49:30.648Z,10.62
2023-02-19T22:52:30.686Z,10.63
2023-02-19T22:55:24.426Z,10.65
2023-02-19T22:58:26.640Z,10.65
2023-02-19T23:01:35.542Z,10.66
2023-02-19T23:04:35.046Z,10.65
2023-02-19T23:07:36.600Z,10.64
2023-02-19T23:10:45.581Z,10.65
2023-02-19T23:13:54.941Z,10.65
2023-02-19T23:16:43.763Z,10.63
2023-02-19T23:19:55.857Z,10.62
2023-02-19T23:23:03.352Z,10.61
2023-02-19T23:26:05.085Z,10.61
2023-02-19T23:29:16.651Z,10.61
2023-02-19T23:32:25.728Z,10.62
2023-02-19T23:35:34.714Z,10.62
2023-02-19T23:38:45.178Z,10.62
2023-02-19T23:41:47.953Z,10.61
2023-02-19T23:44:57.110Z,10.62
2023-02-19T23:47:58.250Z,10.63
2023-02-19T23:51:00.148Z,10.65
2023-02-19T23:54:09.012Z,10.65
2023-02-19T23:57:17.976Z,10.62
